createdAt,value
2018-04-14T00:02:09.895Z,10.10
2018-04-14T00:04:38.037Z,10.10
2018-04-14T00:07:06.208Z,10.10
2018-04-14T00:09:34.355Z,10.10
2018-04-14T00:12:02.523Z,10.10
2018-04-14T00:14:30.667Z,10.10
2018-04-14T00:16:58.840Z,10.10
2018-04-14T00:19:26.975Z,10.10
2018-04-14T00:21:55.913Z,10.00
2018-04-14T00:24:24.052Z,10.00
2018-04-14T00:26:52.980Z,10.00
2018-04-14T00:29:21.117Z,10.00
2018-04-14T00:31:50.041Z,9.90
2018-04-14T00:34:18.186Z,9.90
2018-04-14T00:36:46.365Z,9.90
2018-04-14T00:39:14.496Z,9.90
2018-04-14T00:41:42.663Z,10.00
2018-04-14T00:44:10.808Z,10.00
2018-04-14T00:46:38.975Z,10.00
2018-04-14T00:49:07.121Z,10.10
2018-04-14T00:51:35.286Z,10.10
2018-04-14T00:54:04.189Z,10.10
2018-04-14T00:56:32.356Z,10.10
2018-04-14T00:59:01.264Z,10.20
2018-04-14T01:01:29.429Z,10.20
2018-04-14T01:03:57.568Z,10.20
2018-04-14T01:06:25.741Z,10.20
2018-04-14T01:08:53.885Z,10.20
2018-04-14T01:11:22.057Z,10.20
2018-04-14T01:13:50.192Z,10.20
2018-04-14T01:16:18.359Z,10.30
2018-04-14T01:18:46.500Z,10.30
2018-04-14T01:21:14.666Z,10.30
2018-04-14T01:23:42.799Z,10.30
2018-04-14T01:26:10.963Z,10.30
2018-04-14T01:28:39.109Z,10.30
2018-04-14T01:31:07.268Z,10.30
2018-04-14T01:33:35.407Z,10.30
2018-04-14T01:36:03.576Z,10.30
2018-04-14T01:38:31.714Z,10.30
2018-04-14T01:41:00.640Z,10.30
2018-04-14T01:43:28.782Z,10.30
2018-04-14T01:45:57.708Z,10.30
2018-04-14T01:48:25.848Z,10.30
2018-04-14T01:50:54.780Z,10.30
2018-04-14T01:53:22.923Z,10.30
2018-04-14T01:55:51.092Z,10.30
2018-04-14T01:58:19.998Z,10.30
2018-04-14T02:00:48.163Z,10.30
2018-04-14T02:03:16.300Z,10.40
2018-04-14T02:05:44.476Z,10.40
2018-04-14T02:08:12.615Z,10.30
2018-04-14T02:10:40.783Z,10.30
2018-04-14T02:13:08.929Z,10.20
2018-04-14T02:15:37.099Z,10.20
2018-04-14T02:18:05.998Z,10.00
2018-04-14T02:20:34.167Z,10.00
2018-04-14T02:23:03.064Z,9.90
2018-04-14T02:25:31.222Z,9.90
2018-04-14T02:28:00.120Z,9.90
2018-04-14T02:30:28.272Z,9.80
2018-04-14T02:32:56.409Z,9.80
2018-04-14T02:35:24.570Z,9.70
2018-04-14T02:37:52.730Z,9.70
2018-04-14T02:40:20.904Z,9.70
2018-04-14T02:42:49.032Z,9.60
2018-04-14T02:45:17.192Z,9.60
2018-04-14T02:47:45.319Z,9.50
2018-04-14T02:50:13.484Z,9.50
2018-04-14T02:52:42.405Z,9.50
2018-04-14T02:55:10.568Z,9.40
2018-04-14T02:57:38.699Z,9.40
2018-04-14T03:00:06.860Z,9.40
2018-04-14T03:02:35.020Z,9.40
2018-04-14T03:05:03.184Z,9.50
2018-04-14T03:07:31.323Z,9.50
2018-04-14T03:09:59.482Z,9.50
2018-04-14T03:12:27.610Z,9.50
2018-04-14T03:14:55.768Z,9.40
2018-04-14T03:17:23.929Z,9.50
2018-04-14T03:19:52.088Z,9.50
2018-04-14T03:22:20.256Z,9.50
2018-04-14T03:24:49.188Z,9.50
2018-04-14T03:27:17.321Z,9.50
2018-04-14T03:29:46.256Z,9.50
2018-04-14T03:32:14.417Z,9.50
2018-04-14T03:34:42.579Z,9.50
2018-04-14T03:37:10.709Z,9.50
2018-04-14T03:39:38.840Z,9.50
2018-04-14T03:42:06.994Z,9.50
2018-04-14T03:44:35.125Z,9.50
2018-04-14T03:47:03.287Z,9.50
2018-04-14T03:49:31.424Z,9.60
2018-04-14T03:51:59.576Z,9.60
2018-04-14T03:54:27.712Z,9.60
2018-04-14T03:56:55.868Z,9.70
2018-04-14T03:59:24.011Z,9.70
2018-04-14T04:01:52.167Z,9.80
2018-04-14T04:04:21.067Z,9.90
2018-04-14T04:06:49.228Z,9.90
2018-04-14T04:09:18.133Z,10.00
2018-04-14T04:11:46.299Z,10.00
2018-04-14T04:14:15.202Z,10.10
2018-04-14T04:16:43.364Z,10.10
2018-04-14T04:22:28.367Z,10.20
2018-04-14T04:25:15.072Z,10.30
2018-04-14T04:27:43.267Z,10.30
2018-04-14T04:30:11.428Z,10.40
2018-04-14T04:32:39.597Z,10.40
2018-04-14T04:35:07.737Z,10.50
2018-04-14T04:37:36.685Z,10.50
2018-04-14T04:40:04.829Z,10.50
2018-04-14T04:42:32.996Z,10.50
2018-04-14T04:45:01.160Z,10.50
2018-04-14T04:47:29.520Z,10.50
2018-04-14T04:49:57.660Z,10.50
2018-04-14T04:52:26.240Z,10.50
2018-04-14T04:54:54.377Z,10.60
2018-04-14T04:57:22.542Z,10.60
2018-04-14T04:59:51.448Z,10.70
2018-04-14T05:02:20.527Z,10.70
2018-04-14T05:04:49.438Z,10.80
2018-04-14T05:07:17.604Z,10.70
2018-04-14T05:09:45.740Z,10.80
2018-04-14T05:12:13.916Z,10.80
2018-04-14T05:14:42.064Z,10.90
2018-04-14T05:17:10.235Z,10.90
2018-04-14T05:19:38.373Z,10.90
2018-04-14T05:22:06.609Z,10.90
2018-04-14T05:24:34.748Z,10.90
2018-04-14T05:27:02.925Z,11.00
2018-04-14T05:29:31.072Z,11.00
2018-04-14T05:31:59.257Z,11.00
2018-04-14T05:34:27.409Z,11.00
2018-04-14T05:36:56.345Z,10.90
2018-04-14T05:39:24.489Z,10.90
2018-04-14T05:41:52.661Z,10.90
2018-04-14T05:44:20.803Z,10.80
2018-04-14T05:46:49.739Z,10.70
2018-04-14T05:49:17.879Z,10.60
2018-04-14T05:51:46.804Z,10.40
2018-04-14T05:54:14.949Z,10.40
2018-04-14T05:56:43.875Z,10.20
2018-04-14T05:59:12.017Z,10.20
2018-04-14T06:01:40.952Z,10.00
2018-04-14T06:04:09.117Z,10.00
2018-04-14T06:06:37.280Z,9.90
2018-04-14T06:09:06.335Z,9.80
2018-04-14T06:11:34.517Z,9.70
2018-04-14T06:14:03.419Z,9.60
2018-04-14T06:16:31.586Z,9.60
2018-04-14T06:19:00.512Z,9.50
2018-04-14T06:21:28.647Z,9.50
2018-04-14T06:23:57.577Z,9.40
2018-04-14T06:26:25.725Z,9.40
2018-04-14T06:28:53.895Z,9.40
2018-04-14T06:31:22.030Z,9.40
2018-04-14T06:33:50.224Z,9.40
2018-04-14T06:36:19.124Z,9.30
2018-04-14T06:38:47.291Z,9.30
2018-04-14T06:41:16.197Z,9.40
2018-04-14T06:43:45.351Z,9.40
2018-04-14T06:46:13.533Z,9.40
2018-04-14T06:48:42.245Z,9.40
2018-04-14T06:51:10.396Z,9.40
2018-04-14T06:53:38.558Z,9.40
2018-04-14T06:56:06.696Z,9.40
2018-04-14T06:58:34.941Z,9.40
2018-04-14T07:01:03.857Z,9.40
2018-04-14T07:03:32.155Z,9.40
2018-04-14T07:06:00.513Z,9.40
2018-04-14T07:08:28.675Z,9.40
2018-04-14T07:10:57.129Z,9.40
2018-04-14T07:13:25.521Z,9.40
2018-04-14T07:15:54.855Z,9.40
2018-04-14T07:18:23.746Z,9.40
2018-04-14T07:20:53.203Z,9.50
2018-04-14T07:23:22.037Z,9.50
2018-04-14T07:25:50.882Z,9.50
2018-04-14T07:28:19.693Z,9.50
2018-04-14T07:30:48.247Z,9.50
2018-04-14T07:33:17.014Z,9.50
2018-04-14T07:35:46.248Z,9.50
2018-04-14T07:38:15.088Z,9.50
2018-04-14T07:40:44.051Z,9.50
2018-04-14T07:43:12.631Z,9.60
2018-04-14T07:45:41.944Z,9.60
2018-04-14T07:48:11.037Z,9.60
2018-04-14T07:50:39.662Z,9.60
2018-04-14T07:53:08.627Z,9.60
2018-04-14T07:55:37.453Z,9.60
2018-04-14T07:58:06.042Z,9.70
2018-04-14T08:00:34.559Z,9.70
2018-04-14T08:03:03.234Z,9.70
2018-04-14T08:05:31.628Z,9.70
2018-04-14T08:08:00.486Z,9.70
2018-04-14T08:10:29.045Z,9.70
2018-04-14T08:12:57.745Z,9.70
2018-04-14T08:15:26.667Z,9.80
2018-04-14T08:17:55.746Z,9.80
2018-04-14T08:20:24.577Z,9.80
2018-04-14T08:22:53.317Z,9.80
2018-04-14T08:25:21.958Z,9.80
2018-04-14T08:27:50.706Z,9.80
2018-04-14T08:30:19.742Z,9.90
2018-04-14T08:32:48.828Z,9.90
2018-04-14T08:35:18.355Z,9.90
2018-04-14T08:37:46.821Z,9.90
2018-04-14T08:40:15.367Z,9.90
2018-04-14T08:42:44.412Z,9.90
2018-04-14T08:45:13.717Z,9.90
2018-04-14T08:47:42.273Z,9.90
2018-04-14T08:50:10.855Z,9.90
2018-04-14T08:52:40.165Z,9.90
2018-04-14T08:55:09.889Z,9.90
2018-04-14T08:57:38.225Z,9.90
2018-04-14T09:00:06.724Z,9.90
2018-04-14T09:02:35.216Z,9.90
2018-04-14T09:05:04.976Z,9.80
2018-04-14T09:07:34.504Z,9.80
2018-04-14T09:10:03.299Z,9.80
2018-04-14T09:12:32.367Z,9.90
2018-04-14T09:15:02.213Z,9.90
2018-04-14T09:17:30.775Z,9.90
2018-04-14T09:19:59.620Z,9.90
2018-04-14T09:22:28.855Z,9.90
2018-04-14T09:24:57.572Z,9.90
2018-04-14T09:27:25.926Z,9.90
2018-04-14T09:29:55.157Z,10.00
2018-04-14T09:32:24.671Z,10.00
2018-04-14T09:34:53.167Z,10.00
2018-04-14T09:37:21.849Z,10.00
2018-04-14T09:39:50.424Z,10.00
2018-04-14T09:42:19.425Z,10.00
2018-04-14T09:44:48.089Z,10.00
2018-04-14T09:47:16.563Z,10.00
2018-04-14T09:49:45.346Z,10.00
2018-04-14T09:52:13.890Z,10.10
2018-04-14T09:54:42.708Z,10.10
2018-04-14T09:57:13.357Z,10.10
2018-04-14T09:59:42.597Z,10.10
2018-04-14T10:02:11.224Z,10.10
2018-04-14T10:04:39.922Z,10.10
2018-04-14T10:07:08.481Z,10.20
2018-04-14T10:09:37.808Z,10.10
2018-04-14T10:12:05.963Z,10.10
2018-04-14T10:14:35.124Z,10.10
2018-04-14T10:17:03.341Z,10.10
2018-04-14T10:19:32.268Z,10.10
2018-04-14T10:22:00.944Z,10.10
2018-04-14T10:24:29.457Z,10.10
2018-04-14T10:26:59.138Z,10.10
2018-04-14T10:29:27.680Z,10.10
2018-04-14T10:31:56.696Z,10.10
2018-04-14T10:34:25.571Z,10.20
2018-04-14T10:36:54.427Z,10.20
2018-04-14T10:39:23.210Z,10.20
2018-04-14T10:41:52.238Z,10.20
2018-04-14T10:44:20.449Z,10.20
2018-04-14T10:46:48.613Z,10.20
2018-04-14T10:49:17.037Z,10.20
2018-04-14T10:51:45.491Z,10.20
2018-04-14T10:54:13.958Z,10.20
2018-04-14T10:56:42.368Z,10.20
2018-04-14T10:59:11.195Z,10.20
2018-04-14T11:01:39.888Z,10.20
2018-04-14T11:04:08.754Z,10.20
2018-04-14T11:06:37.266Z,10.20
2018-04-14T11:09:06.002Z,10.20
2018-04-14T11:11:34.535Z,10.20
2018-04-14T11:14:03.117Z,10.20
2018-04-14T11:16:31.793Z,10.20
2018-04-14T11:19:00.486Z,10.30
2018-04-14T11:21:30.445Z,10.30
2018-04-14T11:23:59.430Z,10.30
2018-04-14T11:26:28.721Z,10.30
2018-04-14T11:28:58.083Z,10.40
2018-04-14T11:31:27.491Z,10.40
2018-04-14T11:33:56.188Z,10.40
2018-04-14T11:36:25.171Z,10.50
2018-04-14T11:38:53.988Z,10.50
2018-04-14T11:41:22.418Z,10.40
2018-04-14T11:43:52.256Z,10.50
2018-04-14T11:46:21.188Z,10.50
2018-04-14T11:48:49.641Z,10.50
2018-04-14T11:51:17.896Z,10.50
2018-04-14T11:53:46.057Z,10.60
2018-04-14T11:56:14.224Z,10.60
2018-04-14T11:58:42.367Z,10.60
2018-04-14T12:01:10.556Z,10.60
2018-04-14T12:03:38.748Z,10.50
2018-04-14T12:06:06.926Z,10.60
2018-04-14T12:08:35.070Z,10.60
2018-04-14T12:11:03.232Z,10.60
2018-04-14T12:13:31.383Z,10.70
2018-04-14T12:15:59.793Z,10.80
2018-04-14T12:18:27.985Z,10.80
2018-04-14T12:20:56.157Z,10.80
2018-04-14T12:23:24.408Z,10.90
2018-04-14T12:25:52.826Z,10.80
2018-04-14T12:28:21.037Z,10.80
2018-04-14T12:30:49.266Z,10.80
2018-04-14T12:33:17.417Z,10.80
2018-04-14T12:35:45.579Z,10.80
2018-04-14T12:38:13.708Z,10.80
2018-04-14T12:40:42.505Z,10.80
2018-04-14T12:43:11.415Z,10.80
2018-04-14T12:45:39.581Z,10.80
2018-04-14T12:48:08.485Z,10.80
2018-04-14T12:50:36.647Z,10.80
2018-04-14T12:53:05.544Z,10.80
2018-04-14T12:55:33.696Z,10.80
2018-04-14T12:58:01.850Z,10.80
2018-04-14T13:00:30.071Z,10.90
2018-04-14T13:02:58.215Z,10.90
2018-04-14T13:05:26.862Z,10.90
2018-04-14T13:07:55.076Z,10.90
2018-04-14T13:10:23.293Z,10.90
2018-04-14T13:12:51.422Z,10.90
2018-04-14T13:15:19.600Z,10.90
2018-04-14T13:17:47.757Z,10.90
2018-04-14T13:20:15.965Z,10.90
2018-04-14T13:22:44.898Z,10.90
2018-04-14T13:25:13.036Z,10.80
2018-04-14T13:27:41.961Z,10.90
2018-04-14T13:30:10.118Z,10.80
2018-04-14T13:32:38.262Z,10.80
2018-04-14T13:35:06.416Z,10.80
2018-04-14T13:37:34.671Z,10.80
2018-04-14T13:40:02.765Z,10.70
2018-04-14T13:42:30.936Z,10.60
2018-04-14T13:44:59.103Z,10.60
2018-04-14T13:47:27.243Z,10.50
2018-04-14T13:49:55.404Z,10.50
2018-04-14T13:52:23.604Z,10.50
2018-04-14T13:54:51.766Z,10.50
2018-04-14T13:57:19.974Z,10.50
2018-04-14T13:59:48.140Z,10.40
2018-04-14T14:02:16.340Z,10.40
2018-04-14T14:04:44.482Z,10.40
2018-04-14T14:07:12.663Z,10.50
2018-04-14T14:09:40.810Z,10.50
2018-04-14T14:12:09.006Z,10.60
2018-04-14T14:14:37.163Z,10.60
2018-04-14T14:17:05.324Z,10.70
2018-04-14T14:19:33.614Z,10.70
2018-04-14T14:22:01.801Z,10.70
2018-04-14T14:24:29.937Z,10.70
2018-04-14T14:26:58.102Z,10.60
2018-04-14T14:29:26.243Z,10.60
2018-04-14T14:31:54.439Z,10.60
2018-04-14T14:34:22.580Z,10.60
2018-04-14T14:36:50.751Z,10.50
2018-04-14T14:39:18.879Z,10.50
2018-04-14T14:41:47.042Z,10.40
2018-04-14T14:44:15.187Z,10.40
2018-04-14T14:46:43.344Z,10.40
2018-04-14T14:49:11.475Z,10.40
2018-04-14T14:51:39.634Z,10.40
2018-04-14T14:54:07.764Z,10.40
2018-04-14T14:56:35.922Z,10.40
2018-04-14T14:59:04.114Z,10.40
2018-04-14T15:01:32.255Z,10.40
2018-04-14T15:04:00.394Z,10.40
2018-04-14T15:06:28.545Z,10.40
2018-04-14T15:08:56.676Z,10.40
2018-04-14T15:11:24.834Z,10.40
2018-04-14T15:13:53.001Z,10.30
2018-04-14T15:16:21.166Z,10.30
2018-04-14T15:18:50.072Z,10.30
2018-04-14T15:21:18.239Z,10.30
2018-04-14T15:23:46.461Z,10.30
2018-04-14T15:26:14.659Z,10.30
2018-04-14T15:28:42.819Z,10.20
2018-04-14T15:31:10.989Z,10.20
2018-04-14T15:33:39.241Z,10.20
2018-04-14T15:36:07.481Z,10.20
2018-04-14T15:38:35.707Z,10.20
2018-04-14T15:41:03.863Z,10.20
2018-04-14T15:43:31.999Z,10.20
2018-04-14T15:46:00.272Z,10.20
2018-04-14T15:48:28.456Z,10.10
2018-04-14T15:50:56.599Z,10.10
2018-04-14T15:53:24.812Z,10.10
2018-04-14T15:55:52.994Z,10.10
2018-04-14T15:58:21.161Z,10.10
2018-04-14T16:00:49.301Z,10.00
2018-04-14T16:03:17.473Z,10.10
2018-04-14T16:05:45.653Z,10.00
2018-04-14T16:08:14.564Z,10.00
2018-04-14T16:10:42.725Z,10.00
2018-04-14T16:13:11.693Z,10.00
2018-04-14T16:15:39.841Z,10.00
2018-04-14T16:18:08.008Z,9.90
2018-04-14T16:20:36.144Z,9.90
2018-04-14T16:23:04.312Z,10.00
2018-04-14T16:25:33.226Z,9.90
2018-04-14T16:28:01.580Z,9.90
2018-04-14T16:30:29.724Z,9.90
2018-04-14T16:32:57.879Z,9.90
2018-04-14T16:35:26.016Z,9.90
2018-04-14T16:37:54.628Z,9.80
2018-04-14T16:40:22.766Z,9.80
2018-04-14T16:42:50.934Z,9.80
2018-04-14T16:45:19.064Z,9.80
2018-04-14T16:47:47.231Z,9.80
2018-04-14T16:50:15.363Z,9.80
2018-04-14T16:52:43.519Z,9.80
2018-04-14T16:55:11.660Z,9.90
2018-04-14T16:57:39.828Z,9.80
2018-04-14T17:00:07.999Z,9.80
2018-04-14T17:02:36.155Z,9.90
2018-04-14T17:05:04.302Z,9.80
2018-04-14T17:07:33.251Z,9.80
2018-04-14T17:10:01.404Z,9.80
2018-04-14T17:12:29.582Z,9.80
2018-04-14T17:14:57.725Z,9.80
2018-04-14T17:17:25.923Z,9.80
2018-04-14T17:19:54.273Z,9.80
2018-04-14T17:22:23.207Z,9.90
2018-04-14T17:24:51.360Z,9.80
2018-04-14T17:27:19.509Z,9.90
2018-04-14T17:29:47.669Z,9.90
2018-04-14T17:32:15.829Z,9.90
2018-04-14T17:34:43.960Z,9.90
2018-04-14T17:37:12.138Z,9.90
2018-04-14T17:39:40.306Z,9.90
2018-04-14T17:42:08.501Z,9.90
2018-04-14T17:44:36.725Z,9.90
2018-04-14T17:47:04.876Z,9.90
2018-04-14T17:49:33.041Z,9.90
2018-04-14T17:52:01.257Z,9.90
2018-04-14T17:54:29.434Z,9.90
2018-04-14T17:56:58.484Z,10.00
2018-04-14T17:59:26.696Z,10.00
2018-04-14T18:01:54.882Z,10.00
2018-04-14T18:04:23.057Z,10.00
2018-04-14T18:06:51.244Z,10.00
2018-04-14T18:09:20.002Z,10.00
2018-04-14T18:11:48.957Z,9.90
2018-04-14T18:14:17.125Z,9.90
2018-04-14T18:16:45.468Z,9.90
2018-04-14T18:19:13.736Z,9.90
2018-04-14T18:21:41.888Z,9.90
2018-04-14T18:24:10.892Z,9.90
2018-04-14T18:26:39.801Z,9.90
2018-04-14T18:29:08.210Z,9.90
2018-04-14T18:31:37.276Z,9.90
2018-04-14T18:34:05.428Z,9.90
2018-04-14T18:36:33.576Z,9.90
2018-04-14T18:39:01.742Z,9.90
2018-04-14T18:41:29.891Z,9.90
2018-04-14T18:43:58.047Z,9.90
2018-04-14T18:46:26.210Z,9.90
2018-04-14T18:48:54.373Z,9.90
2018-04-14T18:51:23.654Z,9.90
2018-04-14T18:53:51.808Z,9.90
2018-04-14T18:56:20.192Z,9.90
2018-04-14T18:58:48.500Z,9.90
2018-04-14T19:01:17.451Z,9.90
2018-04-14T19:03:45.617Z,9.80
2018-04-14T19:06:14.262Z,9.80
2018-04-14T19:08:43.221Z,9.80
2018-04-14T19:11:11.378Z,9.80
2018-04-14T19:13:39.642Z,9.80
2018-04-14T19:16:07.787Z,9.80
2018-04-14T19:18:35.999Z,9.80
2018-04-14T19:21:09.912Z,9.80
2018-04-14T19:23:38.564Z,9.80
2018-04-14T19:26:06.750Z,9.90
2018-04-14T19:28:34.916Z,9.90
2018-04-14T19:31:03.061Z,9.90
2018-04-14T19:33:31.236Z,9.90
2018-04-14T19:35:59.369Z,9.90
2018-04-14T19:38:27.509Z,9.90
2018-04-14T19:40:55.678Z,9.90
2018-04-14T19:43:23.889Z,9.90
2018-04-14T19:45:52.027Z,9.80
2018-04-14T19:48:20.376Z,9.80
2018-04-14T19:50:49.295Z,9.80
2018-04-14T19:53:17.712Z,9.80
2018-04-14T19:55:45.875Z,9.70
2018-04-14T19:58:14.137Z,9.70
2018-04-14T20:00:42.307Z,9.60
2018-04-14T20:03:11.004Z,9.60
2018-04-14T20:05:39.168Z,9.60
2018-04-14T20:08:07.312Z,9.60
2018-04-14T20:10:35.475Z,9.60
2018-04-14T20:13:04.384Z,9.50
2018-04-14T20:15:32.600Z,9.50
2018-04-14T20:18:00.847Z,9.50
2018-04-14T20:20:29.045Z,9.50
2018-04-14T20:22:57.182Z,9.40
2018-04-14T20:25:25.365Z,9.40
2018-04-14T20:27:53.497Z,9.40
2018-04-14T20:30:21.654Z,9.40
2018-04-14T20:32:49.789Z,9.40
2018-04-14T20:35:17.982Z,9.40
2018-04-14T20:37:46.116Z,9.40
2018-04-14T20:40:14.292Z,9.40
2018-04-14T20:42:42.461Z,9.40
2018-04-14T20:45:10.631Z,9.40
2018-04-14T20:47:39.538Z,9.30
2018-04-14T20:50:07.696Z,9.30
2018-04-14T20:52:35.852Z,9.30
2018-04-14T20:55:04.074Z,9.30
2018-04-14T20:57:32.293Z,9.30
2018-04-14T21:00:00.515Z,9.30
2018-04-14T21:02:28.706Z,9.20
2018-04-14T21:04:56.893Z,9.20
2018-04-14T21:07:25.024Z,9.20
2018-04-14T21:09:53.176Z,9.10
2018-04-14T21:12:22.103Z,9.00
2018-04-14T21:14:50.276Z,9.00
2018-04-14T21:17:18.496Z,8.90
2018-04-14T21:19:46.665Z,8.90
2018-04-14T21:22:14.817Z,8.80
2018-04-14T21:24:42.980Z,8.80
2018-04-14T21:27:11.132Z,8.80
2018-04-14T21:29:39.300Z,8.70
2018-04-14T21:32:08.208Z,8.70
2018-04-14T21:34:36.363Z,8.70
2018-04-14T21:37:05.264Z,8.80
2018-04-14T21:39:33.400Z,8.80
2018-04-14T21:42:01.564Z,8.80
2018-04-14T21:44:29.696Z,8.80
2018-04-14T21:46:57.853Z,8.90
2018-04-14T21:49:25.988Z,8.90
2018-04-14T21:51:54.148Z,8.90
2018-04-14T21:54:22.285Z,8.90
2018-04-14T21:56:50.448Z,8.90
2018-04-14T21:59:18.620Z,8.90
2018-04-14T22:01:46.775Z,8.90
2018-04-14T22:04:14.912Z,8.90
2018-04-14T22:06:43.076Z,8.90
2018-04-14T22:09:11.237Z,8.90
2018-04-14T22:11:39.373Z,8.90
2018-04-14T22:14:08.300Z,8.80
2018-04-14T22:16:36.462Z,8.80
2018-04-14T22:19:04.601Z,8.80
2018-04-14T22:21:32.770Z,8.80
2018-04-14T22:24:00.904Z,8.80
2018-04-14T22:26:29.063Z,8.80
2018-04-14T22:28:57.198Z,8.80
2018-04-14T22:31:25.355Z,8.90
2018-04-14T22:33:53.492Z,8.90
2018-04-14T22:36:21.651Z,8.90
2018-04-14T22:38:49.783Z,8.90
2018-04-14T22:41:17.946Z,9.00
2018-04-14T22:43:46.083Z,9.00
2018-04-14T22:46:14.245Z,9.00
2018-04-14T22:48:42.376Z,9.00
2018-04-14T22:51:10.536Z,9.00
2018-04-14T22:53:38.699Z,9.00
2018-04-14T22:56:06.837Z,9.10
2018-04-14T22:58:34.994Z,9.10
2018-04-14T23:01:03.124Z,9.00
2018-04-14T23:03:31.293Z,9.10
2018-04-14T23:05:59.440Z,9.10
2018-04-14T23:08:27.599Z,9.10
2018-04-14T23:10:55.737Z,9.10
2018-04-14T23:13:23.896Z,9.10
2018-04-14T23:15:52.029Z,9.10
2018-04-14T23:18:20.192Z,9.10
2018-04-14T23:20:48.325Z,9.20
2018-04-14T23:23:16.483Z,9.20
2018-04-14T23:25:44.619Z,9.20
2018-04-14T23:28:12.790Z,9.20
2018-04-14T23:30:40.925Z,9.20
2018-04-14T23:33:09.084Z,9.20
2018-04-14T23:35:37.221Z,9.20
2018-04-14T23:38:05.387Z,9.20
2018-04-14T23:40:33.521Z,9.20
2018-04-14T23:43:01.683Z,9.20
2018-04-14T23:45:29.823Z,9.30
2018-04-14T23:47:57.960Z,9.30
2018-04-14T23:50:26.121Z,9.30
2018-04-14T23:52:55.014Z,9.30
2018-04-14T23:55:23.177Z,9.30
2018-04-14T23:57:51.308Z,9.30
